INLO2: Newt Graham Lock And Dam (L&D 18)

Data processed at Thu Dec 07 2017 23:33


All information presented herein is the property of the government of the United States of America and may be revised or deleted at any time without prior notice.
Dissemination of this information without the expressed written consent of the Public Affairs Office, Tulsa District U.S. Army Corps of Engineers is strictly prohibited.
These data are gathered electronically and, as presented, have not undergone any form of quality control. These data are not guaranteed to be valid or correct.
Go to home page.
Go to station list.

Upstream stations:

Downstream station:
Previous Day
Next Day
Current Day
    
SHEF ID:       INLO2     Newt Graham Lock And Dam
STATION TYPE:  NAVIGATION LOCK
Normal Pool:  Bottom =   532.00, Top =   532.50

               PRECIP ELEVATION   STORAGE   TW-ELEV LOCK-ELEV    INFLOW   RELEASE    GATE-1    GATE-2    GATE-3  AIR-TEMP  WIND-DIRWIND-SPEED REL-HUMID SOLAR-RAD   VOLTAGE  BAT-LOAD
                   in        ft     ac-ft        ft        ft       cfs       cfs        ft        ft        ft         F       deg       mph         %      W/m2      volt      volt
              Ccp-Rev   Ccp-Rev   Ccp-Rev   Ccp-Rev   Ccp-Rev  Regi-Rev  Regi-Rev   Ccp-Rev   Ccp-Rev   Ccp-Rev   Ccp-Rev   Ccp-Rev   Ccp-Rev   Ccp-Rev   Ccp-Rev   Ccp-Rev   Ccp-Rev
(US/Central)
12/05 00:00      0.00    532.86     24814    512.27      ----         1       174      ----      ----      ----     47.91      0.10     10.20     42.04      0.00     13.54     11.30
12/05 01:00      0.00    532.88     24845    512.23      ----         1       174      ----      ----      ----     45.09    354.30      8.30     47.21      0.00     12.49     11.53
12/05 02:00      0.00    532.95     24953    512.17      ----         1       174      ----      ----      ----     43.65    356.60      8.60     49.71      0.00     12.63     11.53
12/05 03:00      0.00    532.89     24861    512.22      ----         1       174      ----      ----      ----     41.90    358.70      9.60     51.66      0.00     13.56     11.46
12/05 04:00      0.00    532.93     24922    512.17      ----         0       174      ----      ----      ----     39.76    357.90      9.90     52.75      0.00     13.55     11.30
12/05 05:00      0.00    532.89     24861    512.06      ----         0       174      ----      ----      ----     38.08    355.00     10.10     51.70      0.00     12.62     11.53
12/05 06:00      0.00    532.87     24830    512.14      ----         0       174      ----      ----      ----     36.81    358.90      9.10     46.11      0.00     12.48     11.53
12/05 07:00      0.00    532.92     24907    512.19      ----         1       174      ----      ----      ----     36.27    359.50      7.50     46.73      0.00     13.55     11.53
12/05 08:00      0.00    532.86     24814    512.12      ----        17       174      ----      ----      ----     36.14      3.90      7.90     45.17      0.00     13.53     11.37
12/05 09:00      0.00    532.90     24876    512.13      ----       164       174      ----      ----      ----     36.54      4.70      7.10     43.45     12.10     13.53     11.37
12/05 10:00      0.00    532.85     24799    512.13      ----       181       174      ----      ----      ----     36.91     13.00      7.90     38.50     21.90     13.53     11.30
12/05 11:00      0.00    532.88     24845    512.06      ----       199       174      ----      ----      ----     37.74      5.40      7.10     39.62     59.90     13.53     11.30
12/05 12:00      0.00    532.86     24814    512.08      ----       197       174      ----      ----      ----     38.82    351.90      6.60     40.22    184.90     13.52     11.30
12/05 13:00      0.00    532.88     24845    512.08      ----       194         0      ----      ----      ----     40.55    357.60      6.60     34.76    282.30     13.53     11.30
12/05 14:00      0.00    532.88     24845    512.05      ----        60         0      ----      ----      ----     42.55    339.10      6.10     30.38    383.20     13.53     11.30
12/05 15:00      0.00    532.92     24907    512.08      ----        55         0      ----      ----      ----     43.95    316.50      3.90     28.16    232.70     13.52     11.30
12/05 16:00      0.00    532.91     24891    512.09      ----       112         0      ----      ----      ----     45.12    272.70      2.90     28.33    132.30     13.53     11.30
12/05 17:00      0.00    532.89     24861    512.07      ----       168         0      ----      ----      ----     44.38    227.40      2.20     34.28     37.80     13.53     11.30
12/05 18:00      0.00    532.91     24891    512.07      ----       163         0      ----      ----      ----     40.98    208.50      1.50     45.30      0.00     13.52     11.30
12/05 19:00      0.00    532.90     24876    512.09      ----       158         0      ----      ----      ----     38.62    195.30      1.20     51.93      0.00     13.52     11.30
12/05 20:00      0.00    532.94     24938    512.15      ----       149         0      ----      ----      ----     36.93    216.50      1.20     57.12      0.00     13.52     11.30
12/05 21:00      0.00    532.93     24922    512.03      ----        77         0      ----      ----      ----     36.41    212.80      0.50     59.89      0.00     13.52     11.30
12/05 22:00      0.00    532.92     24907    512.05      ----        25         0      ----      ----      ----     34.70    193.60      1.30     65.92      0.00     12.78     11.53
12/05 23:00      0.00    532.98     24999    512.14      ----        33         0      ----      ----      ----     33.37    198.20      0.60     70.32      0.00     12.52     11.61